createdAt,value
2022-10-22T00:00:09.490Z,92.50
2022-10-22T00:02:36.403Z,92.30
2022-10-22T00:05:03.450Z,92.70
2022-10-22T00:07:30.315Z,92.80
2022-10-22T00:09:57.193Z,93.10
2022-10-22T00:12:24.054Z,92.50
2022-10-22T00:14:51.026Z,92.80
2022-10-22T00:17:18.042Z,92.70
2022-10-22T00:19:44.954Z,92.80
2022-10-22T00:22:11.946Z,92.30
2022-10-22T00:24:39.239Z,92.50
2022-10-22T00:27:06.748Z,92.50
2022-10-22T00:29:33.717Z,93.10
2022-10-22T00:32:00.599Z,92.90
2022-10-22T00:34:27.561Z,93.00
2022-10-22T00:36:54.446Z,93.10
2022-10-22T00:39:22.486Z,93.20
2022-10-22T00:41:50.895Z,93.20
2022-10-22T00:44:55.493Z,93.30
2022-10-22T00:47:22.983Z,93.40
2022-10-22T00:49:49.899Z,93.30
2022-10-22T00:52:16.827Z,93.20
2022-10-22T00:54:43.673Z,93.20
2022-10-22T00:57:10.533Z,92.90
2022-10-22T00:59:37.785Z,93.10
2022-10-22T01:02:04.851Z,93.00
2022-10-22T01:04:31.830Z,93.00
2022-10-22T01:06:58.669Z,92.90
2022-10-22T01:09:31.247Z,93.00
2022-10-22T01:12:10.415Z,92.90
2022-10-22T01:15:05.483Z,93.00
2022-10-22T01:17:59.943Z,92.90
2022-10-22T01:20:45.699Z,93.00
2022-10-22T01:23:24.454Z,92.70
2022-10-22T01:25:58.258Z,92.70
2022-10-22T01:28:52.263Z,92.70
2022-10-22T01:31:19.301Z,92.80
2022-10-22T01:33:46.155Z,92.70
2022-10-22T01:36:13.314Z,92.90
2022-10-22T01:38:40.193Z,92.90
2022-10-22T01:41:07.375Z,92.60
2022-10-22T01:43:34.235Z,92.60
2022-10-22T01:46:02.528Z,93.00
2022-10-22T01:48:54.792Z,93.20
2022-10-22T01:51:31.171Z,93.40
2022-10-22T01:54:08.683Z,93.40
2022-10-22T01:56:55.262Z,93.30
2022-10-22T01:59:37.001Z,93.30
2022-10-22T02:02:19.867Z,93.40
2022-10-22T02:04:59.062Z,93.30
2022-10-22T02:07:28.103Z,93.20
2022-10-22T02:09:54.919Z,93.10
2022-10-22T02:12:21.814Z,92.80
2022-10-22T02:14:48.700Z,93.00
2022-10-22T02:17:18.266Z,93.00
2022-10-22T02:19:53.905Z,93.20
2022-10-22T02:22:20.857Z,93.30
2022-10-22T02:24:47.777Z,93.30
2022-10-22T02:27:26.033Z,93.30
2022-10-22T02:30:06.459Z,93.30
2022-10-22T02:32:36.768Z,93.20
2022-10-22T02:35:03.823Z,93.00
2022-10-22T02:37:30.669Z,92.80
2022-10-22T02:39:57.642Z,92.70
2022-10-22T02:42:25.542Z,92.90
2022-10-22T02:44:52.823Z,93.10
2022-10-22T02:47:19.721Z,93.00
2022-10-22T02:49:46.703Z,92.80
2022-10-22T02:52:13.554Z,92.90
2022-10-22T02:54:40.410Z,93.00
2022-10-22T02:57:07.446Z,92.90
2022-10-22T02:59:34.402Z,93.00
2022-10-22T03:02:01.281Z,93.00
2022-10-22T03:04:28.192Z,93.20
2022-10-22T03:06:55.077Z,93.30
2022-10-22T03:09:24.135Z,93.20
2022-10-22T03:11:51.949Z,93.20
2022-10-22T03:14:18.828Z,93.30
2022-10-22T03:16:45.733Z,93.30
2022-10-22T03:19:12.571Z,93.40
2022-10-22T03:21:42.406Z,93.50
2022-10-22T03:24:12.534Z,93.60
2022-10-22T03:26:39.757Z,94.00
2022-10-22T03:29:06.566Z,94.00
2022-10-22T03:31:33.399Z,94.10
2022-10-22T03:34:00.283Z,94.20
2022-10-22T03:36:27.171Z,94.30
2022-10-22T03:38:54.006Z,94.40
2022-10-22T03:41:20.884Z,94.40
2022-10-22T03:43:51.538Z,94.40
2022-10-22T03:46:18.601Z,94.30
2022-10-22T03:48:45.433Z,94.20
2022-10-22T03:51:12.317Z,94.10
2022-10-22T03:53:39.301Z,93.90
2022-10-22T03:56:10.451Z,93.70
2022-10-22T03:58:38.226Z,93.60
2022-10-22T04:01:09.507Z,93.30
2022-10-22T04:03:36.471Z,93.20
2022-10-22T04:06:04.328Z,93.00
2022-10-22T04:08:31.255Z,92.70
2022-10-22T04:10:58.194Z,92.40
2022-10-22T04:13:25.164Z,92.30
2022-10-22T04:15:52.179Z,92.20
2022-10-22T04:18:19.782Z,92.30
2022-10-22T04:20:46.692Z,92.20
2022-10-22T04:23:13.693Z,92.10
2022-10-22T04:25:40.760Z,92.10
2022-10-22T04:28:08.362Z,92.10
2022-10-22T04:30:35.899Z,92.10
2022-10-22T04:33:02.902Z,92.10
2022-10-22T04:35:29.942Z,92.30
2022-10-22T04:37:56.863Z,92.10
2022-10-22T04:40:23.724Z,92.00
2022-10-22T04:42:50.666Z,92.30
2022-10-22T04:45:17.579Z,92.10
2022-10-22T04:47:44.479Z,92.00
2022-10-22T04:50:11.321Z,92.00
2022-10-22T04:52:38.238Z,92.00
2022-10-22T04:55:05.610Z,92.00
2022-10-22T04:57:32.545Z,92.00
2022-10-22T04:59:59.427Z,92.00
2022-10-22T05:02:26.554Z,92.00
2022-10-22T05:04:53.430Z,92.00
2022-10-22T05:07:20.351Z,92.20
2022-10-22T05:09:47.218Z,92.00
2022-10-22T05:12:14.115Z,92.10
2022-10-22T05:14:44.038Z,92.10
2022-10-22T05:17:11.867Z,92.00
2022-10-22T05:19:38.733Z,92.00
2022-10-22T05:22:06.049Z,92.00
2022-10-22T05:24:33.600Z,92.00
2022-10-22T05:27:00.566Z,92.00
2022-10-22T05:29:27.501Z,92.10
2022-10-22T05:31:54.468Z,92.20
2022-10-22T05:34:21.381Z,92.00
2022-10-22T05:36:48.279Z,92.40
2022-10-22T05:39:15.132Z,92.20
2022-10-22T05:41:42.078Z,92.30
2022-10-22T05:44:11.437Z,92.30
2022-10-22T05:46:38.473Z,92.30
2022-10-22T05:49:06.015Z,92.10
2022-10-22T05:51:33.988Z,92.20
2022-10-22T05:54:03.245Z,92.20
2022-10-22T05:56:31.953Z,92.20
2022-10-22T05:58:59.085Z,92.30
2022-10-22T06:01:33.232Z,92.20
2022-10-22T06:04:01.227Z,92.30
2022-10-22T06:06:34.801Z,92.40
2022-10-22T06:09:07.691Z,92.40
2022-10-22T06:11:35.349Z,92.40
2022-10-22T06:14:02.968Z,92.50
2022-10-22T06:16:30.456Z,92.50
2022-10-22T06:18:59.015Z,92.60
2022-10-22T06:21:25.863Z,92.70
2022-10-22T06:23:52.739Z,93.10
2022-10-22T06:26:19.627Z,93.10
2022-10-22T06:28:46.462Z,93.10
2022-10-22T06:31:14.509Z,93.20
2022-10-22T06:33:44.413Z,93.20
2022-10-22T06:36:12.252Z,93.20
2022-10-22T06:38:39.278Z,93.50
2022-10-22T06:41:07.614Z,93.30
2022-10-22T06:43:34.979Z,93.40
2022-10-22T06:46:03.089Z,93.50
2022-10-22T06:48:30.131Z,93.50
2022-10-22T06:51:00.936Z,93.60
2022-10-22T06:53:27.819Z,93.60
2022-10-22T06:55:54.651Z,93.30
2022-10-22T06:58:21.594Z,93.30
2022-10-22T07:00:48.531Z,93.50
2022-10-22T07:03:15.829Z,93.50
2022-10-22T07:05:42.745Z,93.50
2022-10-22T07:08:09.664Z,93.50
2022-10-22T07:10:36.542Z,93.40
2022-10-22T07:13:03.403Z,93.30
2022-10-22T07:15:30.306Z,93.20
2022-10-22T07:17:57.171Z,93.10
2022-10-22T07:20:24.127Z,92.90
2022-10-22T07:22:51.038Z,92.90
2022-10-22T07:25:18.086Z,92.60
2022-10-22T07:27:44.957Z,92.70
2022-10-22T07:30:12.096Z,92.50
2022-10-22T07:32:39.009Z,92.40
2022-10-22T07:35:06.342Z,92.00
2022-10-22T07:37:33.249Z,92.00
2022-10-22T07:40:03.684Z,91.90
2022-10-22T07:42:31.199Z,91.60
2022-10-22T07:44:58.096Z,91.50
2022-10-22T07:47:24.998Z,90.90
2022-10-22T07:49:51.914Z,91.30
2022-10-22T07:52:18.917Z,91.30
2022-10-22T07:54:45.811Z,91.50
2022-10-22T07:57:12.651Z,91.60
2022-10-22T07:59:39.586Z,91.50
2022-10-22T08:02:06.566Z,90.90
2022-10-22T08:04:33.681Z,90.90
2022-10-22T08:07:00.979Z,90.60
2022-10-22T08:09:27.851Z,90.80
2022-10-22T08:11:54.933Z,90.80
2022-10-22T08:14:22.330Z,91.00
2022-10-22T08:16:49.519Z,90.70
2022-10-22T08:19:21.273Z,90.70
2022-10-22T08:21:48.340Z,90.80
2022-10-22T08:24:15.382Z,90.60
2022-10-22T08:26:42.446Z,90.40
2022-10-22T08:29:09.306Z,90.80
2022-10-22T08:31:36.170Z,90.50
2022-10-22T08:34:03.194Z,90.70
2022-10-22T08:36:30.072Z,90.40
2022-10-22T08:38:56.950Z,90.40
2022-10-22T08:41:24.022Z,90.30
2022-10-22T08:44:12.656Z,90.20
2022-10-22T08:46:52.632Z,90.10
2022-10-22T08:49:21.971Z,90.10
2022-10-22T08:51:48.810Z,90.20
2022-10-22T08:54:21.620Z,89.70
2022-10-22T08:57:03.335Z,89.70
2022-10-22T08:59:51.467Z,89.80
2022-10-22T09:02:39.980Z,87.90
2022-10-22T09:05:19.558Z,89.50
2022-10-22T09:07:50.237Z,90.00
2022-10-22T09:10:18.588Z,90.10
2022-10-22T09:12:45.662Z,89.40
2022-10-22T09:15:16.321Z,89.90
2022-10-22T09:17:51.028Z,88.50
2022-10-22T09:20:32.865Z,88.00
2022-10-22T09:23:29.594Z,87.90
2022-10-22T09:25:57.069Z,87.10
2022-10-22T09:28:24.210Z,87.90
2022-10-22T09:30:51.273Z,87.20
2022-10-22T09:33:27.499Z,85.20
2022-10-22T09:35:55.830Z,86.80
2022-10-22T09:38:27.744Z,85.90
2022-10-22T09:40:55.764Z,85.90
2022-10-22T09:43:22.683Z,86.30
2022-10-22T09:45:55.391Z,82.70
2022-10-22T09:48:28.475Z,83.70
2022-10-22T09:51:21.376Z,83.40
2022-10-22T09:54:01.814Z,79.50
2022-10-22T09:56:36.374Z,82.50
2022-10-22T09:59:03.332Z,81.10
2022-10-22T10:01:32.974Z,82.40
2022-10-22T10:04:09.702Z,79.60
2022-10-22T10:06:39.156Z,79.40
2022-10-22T10:09:22.429Z,82.70
2022-10-22T10:11:56.061Z,82.70
2022-10-22T10:14:35.359Z,82.20
2022-10-22T10:17:38.712Z,81.10
2022-10-22T10:20:36.731Z,80.00
2022-10-22T10:23:15.706Z,77.20
2022-10-22T10:25:49.682Z,76.70
2022-10-22T10:28:41.409Z,78.80
2022-10-22T10:31:19.283Z,78.00
2022-10-22T10:34:04.843Z,79.10
2022-10-22T10:36:40.069Z,76.30
2022-10-22T10:39:18.851Z,76.90
2022-10-22T10:41:48.743Z,76.80
2022-10-22T10:44:49.907Z,76.80
2022-10-22T10:47:46.482Z,75.60
2022-10-22T10:50:41.452Z,75.30
2022-10-22T10:53:33.999Z,75.00
2022-10-22T10:56:22.155Z,76.00
2022-10-22T10:59:13.726Z,76.90
2022-10-22T11:02:00.775Z,75.70
2022-10-22T11:04:46.310Z,77.00
2022-10-22T11:07:33.461Z,77.00
2022-10-22T11:10:09.973Z,77.90
2022-10-22T11:12:39.871Z,77.90
2022-10-22T11:15:34.251Z,77.20
2022-10-22T11:18:10.533Z,73.50
2022-10-22T11:20:51.225Z,74.40
2022-10-22T11:23:41.145Z,77.40
2022-10-22T11:26:11.658Z,73.30
2022-10-22T11:28:42.702Z,74.40
2022-10-22T11:31:16.944Z,77.20
2022-10-22T11:34:09.806Z,74.50
2022-10-22T11:36:42.461Z,70.50
2022-10-22T11:39:39.121Z,76.00
2022-10-22T11:42:09.725Z,73.20
2022-10-22T11:45:06.981Z,73.20
2022-10-22T11:47:36.316Z,71.60
2022-10-22T11:50:44.054Z,75.70
2022-10-22T11:53:14.130Z,70.20
2022-10-22T11:55:48.213Z,72.20
2022-10-22T11:58:50.783Z,72.80
2022-10-22T12:01:50.109Z,69.50
2022-10-22T12:04:23.676Z,67.40
2022-10-22T12:06:57.739Z,69.50
2022-10-22T12:09:26.740Z,68.50
2022-10-22T12:11:53.659Z,71.70
2022-10-22T12:14:29.684Z,67.60
2022-10-22T12:17:10.045Z,70.00
2022-10-22T12:19:41.068Z,69.40
2022-10-22T12:22:13.929Z,69.20
2022-10-22T12:24:42.309Z,69.80
2022-10-22T12:27:24.338Z,71.20
2022-10-22T12:29:58.388Z,69.20
2022-10-22T12:32:34.119Z,69.40
2022-10-22T12:35:04.854Z,68.10
2022-10-22T12:37:31.748Z,67.10
2022-10-22T12:39:58.586Z,70.50
2022-10-22T12:42:25.630Z,70.10
2022-10-22T12:44:55.982Z,71.50
2022-10-22T12:47:22.989Z,70.00
2022-10-22T12:49:50.244Z,67.50
2022-10-22T12:52:21.706Z,67.70
2022-10-22T12:54:50.180Z,70.30
2022-10-22T12:57:18.193Z,71.10
2022-10-22T12:59:49.839Z,70.30
2022-10-22T13:02:17.946Z,70.10
2022-10-22T13:05:03.972Z,72.30
2022-10-22T13:07:39.053Z,72.10
2022-10-22T13:10:34.413Z,69.30
2022-10-22T13:13:03.415Z,70.50
2022-10-22T13:15:36.465Z,72.00
2022-10-22T13:18:19.607Z,72.70
2022-10-22T13:20:56.725Z,70.30
2022-10-22T13:23:28.097Z,71.50
2022-10-22T13:26:14.771Z,73.20
2022-10-22T13:28:41.708Z,73.40
2022-10-22T13:31:23.111Z,73.20
2022-10-22T13:33:55.888Z,71.40
2022-10-22T13:36:22.954Z,72.70
2022-10-22T13:38:49.931Z,72.70
2022-10-22T13:41:24.702Z,73.90
2022-10-22T13:43:51.831Z,72.90
2022-10-22T13:46:18.743Z,72.90
2022-10-22T13:48:46.306Z,73.90
2022-10-22T13:51:18.340Z,73.90
2022-10-22T13:53:46.469Z,72.20
2022-10-22T13:56:17.783Z,73.50
2022-10-22T13:58:45.511Z,71.60
2022-10-22T14:01:25.957Z,72.50
2022-10-22T14:03:58.096Z,69.60
2022-10-22T14:06:26.339Z,72.00
2022-10-22T14:08:58.666Z,71.30
2022-10-22T14:11:27.407Z,69.40
2022-10-22T14:13:54.743Z,71.00
2022-10-22T14:16:26.210Z,69.30
2022-10-22T14:18:53.162Z,70.00
2022-10-22T14:21:20.090Z,70.90
2022-10-22T14:23:47.848Z,70.00
2022-10-22T14:26:25.655Z,71.10
2022-10-22T14:34:27.431Z,69.30
2022-10-22T14:36:54.373Z,70.00
2022-10-22T14:39:21.901Z,68.00
2022-10-22T14:41:48.972Z,69.40
2022-10-22T14:44:16.990Z,70.40
2022-10-22T14:46:44.485Z,67.70
2022-10-22T14:49:11.579Z,71.20
2022-10-22T14:51:38.479Z,70.40
2022-10-22T14:54:05.377Z,71.00
2022-10-22T14:56:32.363Z,71.10
2022-10-22T14:58:59.318Z,71.10
2022-10-22T15:01:26.240Z,72.20
2022-10-22T15:03:53.161Z,72.20
2022-10-22T15:06:19.983Z,72.10
2022-10-22T15:08:46.905Z,72.30
2022-10-22T15:11:13.942Z,72.20
2022-10-22T15:13:42.222Z,72.40
2022-10-22T15:16:10.479Z,72.50
2022-10-22T15:18:37.478Z,72.10
2022-10-22T15:21:06.798Z,72.50
2022-10-22T15:23:34.065Z,72.90
2022-10-22T15:26:00.984Z,72.90
2022-10-22T15:28:27.824Z,72.90
2022-10-22T15:30:55.926Z,73.30
2022-10-22T15:33:22.878Z,73.30
2022-10-22T15:35:49.870Z,73.60
2022-10-22T15:38:18.418Z,73.70
2022-10-22T15:40:45.329Z,74.60
2022-10-22T15:43:12.206Z,75.20
2022-10-22T15:45:39.188Z,74.50
2022-10-22T15:48:06.160Z,74.80
2022-10-22T15:50:33.083Z,75.10
2022-10-22T15:52:59.991Z,75.40
2022-10-22T15:55:26.859Z,75.10
2022-10-22T15:57:59.228Z,75.30
2022-10-22T16:00:28.747Z,75.60
2022-10-22T16:02:55.651Z,75.40
2022-10-22T16:05:22.640Z,75.60
2022-10-22T16:07:51.379Z,76.20
2022-10-22T16:10:18.314Z,75.80
2022-10-22T16:12:45.232Z,76.10
2022-10-22T16:15:12.068Z,76.90
2022-10-22T16:17:39.081Z,76.20
2022-10-22T16:20:06.541Z,77.10
2022-10-22T16:22:34.111Z,77.10
2022-10-22T16:25:00.977Z,77.10
2022-10-22T16:27:27.910Z,77.70
2022-10-22T16:29:54.804Z,78.10
2022-10-22T16:32:21.739Z,78.20
2022-10-22T16:34:48.554Z,78.50
2022-10-22T16:37:15.443Z,78.80
2022-10-22T16:39:42.318Z,79.20
2022-10-22T16:42:09.197Z,78.90
2022-10-22T16:44:36.067Z,79.40
2022-10-22T16:47:02.946Z,79.40
2022-10-22T16:49:29.773Z,79.70
2022-10-22T16:51:56.637Z,80.10
2022-10-22T16:54:23.519Z,80.30
2022-10-22T16:56:50.416Z,80.60
2022-10-22T16:59:17.262Z,80.80
2022-10-22T17:01:44.197Z,80.70
2022-10-22T17:04:11.140Z,80.80
2022-10-22T17:06:38.057Z,81.40
2022-10-22T17:09:05.220Z,81.70
2022-10-22T17:11:36.314Z,82.00
2022-10-22T17:14:05.025Z,82.50
2022-10-22T17:16:31.904Z,82.70
2022-10-22T17:18:58.840Z,82.90
2022-10-22T17:21:25.738Z,83.40
2022-10-22T17:23:56.725Z,83.70
2022-10-22T17:26:23.890Z,83.70
2022-10-22T17:28:50.824Z,83.80
2022-10-22T17:31:26.249Z,84.10
2022-10-22T17:33:53.962Z,85.20
2022-10-22T17:36:21.476Z,84.70
2022-10-22T17:38:49.802Z,84.60
2022-10-22T17:41:18.960Z,85.30
2022-10-22T17:46:23.779Z,86.00
2022-10-22T17:49:04.440Z,86.70
2022-10-22T17:51:31.516Z,86.60
2022-10-22T17:53:58.429Z,86.10
2022-10-22T17:56:26.655Z,86.60
2022-10-22T17:58:53.761Z,86.60
2022-10-22T18:01:31.543Z,86.80
2022-10-22T18:04:05.926Z,87.90
2022-10-22T18:06:33.228Z,87.70
2022-10-22T18:09:03.356Z,87.80
2022-10-22T18:11:31.672Z,88.50
2022-10-22T18:14:01.398Z,88.40
2022-10-22T18:16:28.326Z,90.00
2022-10-22T18:18:56.057Z,89.90
2022-10-22T18:21:24.250Z,90.10
2022-10-22T18:23:51.184Z,90.10
2022-10-22T18:26:20.275Z,90.10
2022-10-22T18:28:49.907Z,90.10
2022-10-22T18:31:18.469Z,89.50
2022-10-22T18:33:45.415Z,90.50
2022-10-22T18:36:14.672Z,90.60
2022-10-22T18:38:41.540Z,90.00
2022-10-22T18:41:09.831Z,90.90
2022-10-22T18:43:36.842Z,90.80
2022-10-22T18:46:06.176Z,90.70
2022-10-22T18:48:33.086Z,90.90
2022-10-22T18:51:01.612Z,91.30
2022-10-22T18:53:28.675Z,91.20
2022-10-22T18:55:55.468Z,91.30
2022-10-22T18:58:22.525Z,90.90
2022-10-22T19:00:49.948Z,90.80
2022-10-22T19:03:17.321Z,91.40
2022-10-22T19:05:54.884Z,91.50
2022-10-22T19:08:24.125Z,91.40
2022-10-22T19:10:50.960Z,91.50
2022-10-22T19:13:21.511Z,91.50
2022-10-22T19:15:48.440Z,91.60
2022-10-22T19:18:15.414Z,91.60
2022-10-22T19:20:44.719Z,91.50
2022-10-22T19:23:11.893Z,91.50
2022-10-22T19:25:38.938Z,91.20
2022-10-22T19:28:05.961Z,91.30
2022-10-22T19:30:33.332Z,91.10
2022-10-22T19:33:00.293Z,91.30
2022-10-22T19:35:27.165Z,91.00
2022-10-22T19:37:54.159Z,91.70
2022-10-22T19:40:25.847Z,91.40
2022-10-22T19:42:55.885Z,91.10
2022-10-22T19:45:25.697Z,91.50
2022-10-22T19:47:52.519Z,91.60
2022-10-22T19:50:19.496Z,92.30
2022-10-22T19:52:46.430Z,91.90
2022-10-22T19:55:14.631Z,91.40
2022-10-22T19:57:41.773Z,91.80
2022-10-22T20:00:09.496Z,91.90
2022-10-22T20:02:36.904Z,91.80
2022-10-22T20:05:04.177Z,91.90
2022-10-22T20:07:33.567Z,91.90
2022-10-22T20:10:00.454Z,91.80
2022-10-22T20:12:27.441Z,91.80
2022-10-22T20:14:54.479Z,91.80
2022-10-22T20:17:21.606Z,91.80
2022-10-22T20:19:48.555Z,91.80
2022-10-22T20:22:17.984Z,91.80
2022-10-22T20:24:45.823Z,91.80
2022-10-22T20:27:13.484Z,91.80
2022-10-22T20:29:40.464Z,91.80
2022-10-22T20:32:08.861Z,91.70
2022-10-22T20:34:35.898Z,91.70
2022-10-22T20:37:02.758Z,91.70
2022-10-22T20:39:29.745Z,91.70
2022-10-22T20:41:56.554Z,91.70
2022-10-22T20:44:23.569Z,91.50
2022-10-22T20:46:51.583Z,91.60
2022-10-22T20:49:18.583Z,91.50
2022-10-22T20:51:45.623Z,91.40
2022-10-22T20:54:12.628Z,91.40
2022-10-22T20:56:40.038Z,91.40
2022-10-22T20:59:08.467Z,91.40
2022-10-22T21:01:46.887Z,91.20
2022-10-22T21:04:13.763Z,91.40
2022-10-22T21:06:43.019Z,91.30
2022-10-22T21:09:14.359Z,91.30
2022-10-22T21:11:42.114Z,91.30
2022-10-22T21:14:10.144Z,91.40
2022-10-22T21:16:40.009Z,91.40
2022-10-22T21:19:06.903Z,91.50
2022-10-22T21:21:33.780Z,91.50
2022-10-22T21:24:00.674Z,91.60
2022-10-22T21:26:27.588Z,91.60
2022-10-22T21:28:54.670Z,91.60
2022-10-22T21:31:26.378Z,91.60
2022-10-22T21:33:53.555Z,91.60
2022-10-22T21:36:22.989Z,91.50
2022-10-22T21:38:51.925Z,91.60
2022-10-22T21:41:19.670Z,91.80
2022-10-22T21:43:46.614Z,91.60
2022-10-22T21:46:18.287Z,91.60
2022-10-22T21:48:45.353Z,91.70
2022-10-22T21:51:14.303Z,91.60
2022-10-22T21:53:41.638Z,91.60
2022-10-22T21:56:08.850Z,91.70
2022-10-22T21:58:36.018Z,91.60
2022-10-22T22:01:03.077Z,91.70
2022-10-22T22:03:30.437Z,91.70
2022-10-22T22:06:01.519Z,91.70
2022-10-22T22:08:28.529Z,91.80
2022-10-22T22:11:09.700Z,91.80
2022-10-22T22:13:36.739Z,91.80
2022-10-22T22:16:05.440Z,91.80
2022-10-22T22:18:32.757Z,92.00
2022-10-22T22:20:59.836Z,92.00
2022-10-22T22:23:26.794Z,91.90
2022-10-22T22:25:57.838Z,92.20
2022-10-22T22:28:24.726Z,92.00
2022-10-22T22:30:51.632Z,92.20
2022-10-22T22:33:18.671Z,92.30
2022-10-22T22:35:45.559Z,92.30
2022-10-22T22:38:13.783Z,92.30
2022-10-22T22:40:41.322Z,92.30
2022-10-22T22:43:09.023Z,92.30
2022-10-22T22:45:35.954Z,92.30
2022-10-22T22:48:03.197Z,92.40
2022-10-22T22:50:30.367Z,92.40
2022-10-22T22:52:57.266Z,92.30
2022-10-22T22:55:24.190Z,92.40
2022-10-22T22:57:51.085Z,92.30
2022-10-22T23:00:18.142Z,92.60
2022-10-22T23:02:45.145Z,92.60
2022-10-22T23:05:12.218Z,92.60
2022-10-22T23:07:39.055Z,92.60
2022-10-22T23:10:06.411Z,92.50
2022-10-22T23:12:33.318Z,92.50
2022-10-22T23:15:02.166Z,92.30
2022-10-22T23:17:29.100Z,92.30
2022-10-22T23:19:56.094Z,92.30
2022-10-22T23:22:22.954Z,92.40
2022-10-22T23:24:49.963Z,92.40
2022-10-22T23:27:16.949Z,92.50
2022-10-22T23:29:43.864Z,92.50
2022-10-22T23:32:16.606Z,92.40
2022-10-22T23:34:43.481Z,92.50
2022-10-22T23:37:11.757Z,92.60
2022-10-22T23:39:38.736Z,92.80
2022-10-22T23:42:05.589Z,92.80
2022-10-22T23:44:32.687Z,92.80
2022-10-22T23:46:59.668Z,92.80
2022-10-22T23:49:26.518Z,92.80
2022-10-22T23:51:53.417Z,92.80
2022-10-22T23:54:20.326Z,92.80
2022-10-22T23:56:47.311Z,92.90
